Flight Number: EUR1175 Duration: 2:20
Departure: Madrid / Barajas (LEMD) at 08:30 Distance: 955 Nm
Arrival: Tenerife Norte (GCXO) at 10:50 Equipment: A321

Weather Information
Madrid / Barajas, Spain (LEMD) 40-27N 003-33W 582M Feb 19, 2018 - 02:30 AM EST / 2018.02.19 0730 UTC
Wind: Variable at 2 MPH (2 KT):0
Visibility: greater than 7 mile(s):0
Sky conditions: mostly clear Temperature: 41 F (5 C) Dew Point: 37 F (3 C) Relative Humidity: 86% Pressure (altimeter): 30.09 in. Hg (1019 hPa)
ob: LEMD 190730Z VRB02KT 9999 FEW080 05/03 Q1019 NOSIG cycle: 7
Sunrise: 07:04 Sunset: 17:51 (UTC)

Tenerife / Los Rodeos, Spain (GCXO) 28-28N 016-19W 617M Feb 19, 2018 - 02:30 AM EST / 2018.02.19 0730 UTC
Wind: from the NW (310 degrees) at 12 MPH (10 KT) (direction variable):0
Visibility: greater than 7 mile(s):0
Sky conditions: mostly cloudy Temperature: 51 F (11 C) Dew Point: 50 F (10 C) Relative Humidity: 93% Pressure (altimeter): 30.06 in. Hg (1018 hPa)
ob: GCXO 190730Z 31010KT 280V340 9999 SCT008 BKN015 11/10 Q1018 NOSIG cycle: 7
Sunrise: 07:42 Sunset: 18:56 (UTC)

TAF:2018/02/19 03:27 TAF GCXO 190200Z 1903/2003 30015KT 9999 SCT015 TX15/1914Z TN09/1906Z PROB40 TEMPO 1909/1912 4500 DZRA BKN005

Previous Pireps for this route
Date Aircraft Flight time Fuel used Landing rate On time
2012-10-28A32102.5416304-310No
2013-06-05A32102.5116238-344No
2013-10-29B7372.20200000No
2014-06-11A32102.2814963-193Yes
2014-07-15A3212.4194480No
2014-07-19A32102.3615014-185Yes
2014-10-12A3212.20170000No
2015-01-06A3212.53221550No
(pireps marked green are flown by you)

Route map